createdAt,value
2019-02-08T00:00:27.790Z,0
2019-02-08T00:01:37.274Z,0
2019-02-08T00:02:47.227Z,0
2019-02-08T00:03:56.926Z,0
2019-02-08T00:05:06.940Z,0
2019-02-08T00:06:16.402Z,0
2019-02-08T00:07:26.369Z,0
2019-02-08T00:08:36.350Z,0
2019-02-08T00:09:45.809Z,0
2019-02-08T00:10:55.537Z,0
2019-02-08T00:12:05.315Z,0
2019-02-08T00:13:15.272Z,0
2019-02-08T00:14:25.001Z,0
2019-02-08T00:15:34.708Z,0
2019-02-08T00:16:44.681Z,0
2019-02-08T00:17:54.657Z,0
2019-02-08T00:19:04.117Z,0
2019-02-08T00:20:14.122Z,0
2019-02-08T00:21:23.876Z,0
2019-02-08T00:22:33.860Z,0
2019-02-08T00:23:43.817Z,0
2019-02-08T00:24:53.836Z,0
2019-02-08T00:26:03.837Z,0
2019-02-08T00:27:13.345Z,0
2019-02-08T00:28:23.318Z,0
2019-02-08T00:29:33.346Z,0
2019-02-08T00:30:43.343Z,0
2019-02-08T00:31:53.367Z,0
2019-02-08T00:33:03.081Z,0
2019-02-08T00:34:12.797Z,0
2019-02-08T00:35:22.749Z,0
2019-02-08T00:36:32.714Z,0
2019-02-08T00:37:42.406Z,0
2019-02-08T00:38:51.862Z,0
2019-02-08T00:40:01.614Z,0
2019-02-08T00:41:11.324Z,0
2019-02-08T00:42:20.788Z,0
2019-02-08T00:43:30.506Z,0
2019-02-08T00:44:39.708Z,0
2019-02-08T00:45:49.656Z,0
2019-02-08T00:46:59.111Z,0
2019-02-08T00:48:08.824Z,0
2019-02-08T00:49:18.797Z,0
2019-02-08T00:50:28.500Z,0
2019-02-08T00:51:38.210Z,0
2019-02-08T00:52:47.753Z,0
2019-02-08T00:53:56.971Z,0
2019-02-08T00:55:06.424Z,0
2019-02-08T00:56:15.895Z,0
2019-02-08T00:57:24.860Z,0
2019-02-08T00:58:34.308Z,0
2019-02-08T00:59:44.263Z,0
2019-02-08T01:00:54.236Z,0
2019-02-08T01:02:03.680Z,0
2019-02-08T01:03:13.636Z,0
2019-02-08T01:04:23.350Z,0
2019-02-08T01:05:32.831Z,0
2019-02-08T01:06:42.781Z,0
2019-02-08T01:07:52.740Z,0
2019-02-08T01:09:02.188Z,0
2019-02-08T01:10:11.634Z,0
2019-02-08T01:11:21.345Z,0
2019-02-08T01:12:31.067Z,0
2019-02-08T01:13:40.770Z,0
2019-02-08T01:14:50.742Z,0
2019-02-08T01:16:00.457Z,0
2019-02-08T01:17:10.172Z,0
2019-02-08T01:18:19.625Z,0
2019-02-08T01:19:28.837Z,0
2019-02-08T01:20:38.804Z,0
2019-02-08T01:21:48.504Z,0
2019-02-08T01:22:58.453Z,0
2019-02-08T01:24:08.393Z,0
2019-02-08T01:25:18.080Z,0
2019-02-08T01:26:27.758Z,0
2019-02-08T01:27:37.690Z,0
2019-02-08T01:28:47.360Z,0
2019-02-08T01:29:57.027Z,0
2019-02-08T01:31:06.705Z,0
2019-02-08T01:32:16.155Z,0
2019-02-08T01:33:25.868Z,0
2019-02-08T01:34:35.541Z,0
2019-02-08T01:35:45.233Z,0
2019-02-08T01:36:55.166Z,0
2019-02-08T01:38:04.851Z,0
2019-02-08T01:39:14.525Z,0
2019-02-08T01:40:24.198Z,0
2019-02-08T01:41:33.617Z,0
2019-02-08T01:42:43.537Z,0
2019-02-08T01:43:53.213Z,0
2019-02-08T01:45:02.889Z,0
2019-02-08T01:46:12.568Z,0
2019-02-08T01:47:22.247Z,0
2019-02-08T01:48:32.180Z,0
2019-02-08T01:49:41.869Z,0
2019-02-08T01:50:51.541Z,0
2019-02-08T01:52:01.229Z,0
2019-02-08T01:53:11.153Z,0
2019-02-08T01:54:21.078Z,0
2019-02-08T01:55:30.763Z,0
2019-02-08T01:56:40.431Z,0
2019-02-08T01:57:50.121Z,0
2019-02-08T01:58:59.552Z,0
2019-02-08T02:00:10.055Z,0
2019-02-08T02:01:19.770Z,0
2019-02-08T02:02:29.188Z,0
2019-02-08T02:03:38.872Z,0
2019-02-08T02:04:48.828Z,0
2019-02-08T02:05:58.758Z,0
2019-02-08T02:07:08.434Z,0
2019-02-08T02:08:17.873Z,0
2019-02-08T02:09:27.565Z,0
2019-02-08T02:10:37.245Z,0
2019-02-08T02:11:46.930Z,0
2019-02-08T02:12:56.602Z,0
2019-02-08T02:14:06.285Z,0
2019-02-08T02:15:16.230Z,0
2019-02-08T02:16:25.955Z,0
2019-02-08T02:17:35.642Z,0
2019-02-08T02:18:45.066Z,0
2019-02-08T02:19:54.987Z,0
2019-02-08T02:21:04.163Z,0
2019-02-08T02:22:13.863Z,0
2019-02-08T02:23:23.785Z,0
2019-02-08T02:24:33.713Z,0
2019-02-08T02:25:43.387Z,0
2019-02-08T02:26:52.811Z,0
2019-02-08T02:29:19.152Z,0
2019-02-08T02:30:29.090Z,0
2019-02-08T02:31:39.053Z,0
2019-02-08T02:32:48.982Z,0
2019-02-08T02:33:58.927Z,0
2019-02-08T02:35:08.638Z,0
2019-02-08T02:36:18.437Z,0
2019-02-08T02:37:28.139Z,0
2019-02-08T02:38:37.837Z,0
2019-02-08T02:39:47.535Z,0
2019-02-08T02:40:56.991Z,0
2019-02-08T02:42:06.728Z,0
2019-02-08T02:43:16.665Z,0
2019-02-08T02:44:26.603Z,0
2019-02-08T02:45:36.554Z,0
2019-02-08T02:46:46.486Z,0
2019-02-08T02:47:55.928Z,0
2019-02-08T02:49:05.875Z,0
2019-02-08T02:50:15.822Z,0
2019-02-08T02:51:25.261Z,0
2019-02-08T02:52:34.938Z,0
2019-02-08T02:53:44.896Z,0
2019-02-08T02:54:54.854Z,0
2019-02-08T02:56:04.533Z,0
2019-02-08T02:57:14.456Z,0
2019-02-08T02:58:23.636Z,0
2019-02-08T02:59:33.600Z,0
2019-02-08T03:00:43.271Z,0
2019-02-08T03:01:53.260Z,0
2019-02-08T03:03:03.759Z,0
2019-02-08T03:04:13.439Z,0
2019-02-08T03:05:23.127Z,0
2019-02-08T03:06:32.810Z,0
2019-02-08T03:07:42.485Z,0
2019-02-08T03:08:52.421Z,0
2019-02-08T03:10:02.100Z,0
2019-02-08T03:11:12.035Z,0
2019-02-08T03:12:21.560Z,0
2019-02-08T03:13:31.238Z,0
2019-02-08T03:14:40.680Z,0
2019-02-08T03:15:50.354Z,0
2019-02-08T03:17:00.297Z,0
2019-02-08T03:18:09.986Z,0
2019-02-08T03:19:19.168Z,0
2019-02-08T03:20:28.866Z,0
2019-02-08T03:21:38.549Z,0
2019-02-08T03:22:48.484Z,0
2019-02-08T03:23:57.673Z,0
2019-02-08T03:25:07.615Z,0
2019-02-08T03:26:17.535Z,0
2019-02-08T03:27:27.456Z,0
2019-02-08T03:28:37.153Z,0
2019-02-08T03:29:46.874Z,0
2019-02-08T03:30:56.861Z,0
2019-02-08T03:32:06.968Z,0
2019-02-08T03:33:16.682Z,0
2019-02-08T03:34:26.641Z,0
2019-02-08T03:35:36.072Z,0
2019-02-08T03:36:45.996Z,0
2019-02-08T03:37:56.369Z,0
2019-02-08T03:39:06.493Z,0
2019-02-08T03:40:16.433Z,0
2019-02-08T03:41:25.859Z,0
2019-02-08T03:42:35.787Z,0
2019-02-08T03:43:45.718Z,0
2019-02-08T03:44:55.162Z,0
2019-02-08T03:46:05.100Z,0
2019-02-08T03:47:14.772Z,0
2019-02-08T03:48:24.455Z,0
2019-02-08T03:49:34.393Z,0
2019-02-08T03:50:44.316Z,0
2019-02-08T03:51:54.244Z,0
2019-02-08T03:53:03.927Z,0
2019-02-08T03:54:20.814Z,0
2019-02-08T03:55:31.172Z,0
2019-02-08T03:56:40.861Z,0
2019-02-08T03:57:50.797Z,0
2019-02-08T03:59:00.476Z,0
2019-02-08T04:00:10.408Z,0
2019-02-08T04:01:19.845Z,0
2019-02-08T04:02:29.540Z,0
2019-02-08T04:03:39.014Z,0
2019-02-08T04:04:48.696Z,0
2019-02-08T04:05:58.387Z,0
2019-02-08T04:07:08.353Z,0
2019-02-08T04:08:17.789Z,0
2019-02-08T04:09:27.717Z,0
2019-02-08T04:10:37.162Z,0
2019-02-08T04:11:46.612Z,0
2019-02-08T04:12:56.052Z,0
2019-02-08T04:14:05.983Z,0
2019-02-08T04:15:15.925Z,0
2019-02-08T04:16:25.617Z,0
2019-02-08T04:17:34.807Z,0
2019-02-08T04:18:45.031Z,0
2019-02-08T04:19:54.750Z,0
2019-02-08T04:21:04.682Z,0
2019-02-08T04:22:14.612Z,0
2019-02-08T04:23:24.597Z,0
2019-02-08T04:24:37.326Z,0
2019-02-08T04:25:46.754Z,0
2019-02-08T04:26:56.681Z,0
2019-02-08T04:28:06.370Z,0
2019-02-08T04:29:16.307Z,0
2019-02-08T04:30:26.035Z,0
2019-02-08T04:31:35.461Z,0
2019-02-08T04:32:45.142Z,0
2019-02-08T04:33:54.838Z,0
2019-02-08T04:35:04.766Z,0
2019-02-08T04:36:14.700Z,0
2019-02-08T04:37:24.379Z,0
2019-02-08T04:38:33.551Z,0
2019-02-08T04:39:42.994Z,0
2019-02-08T04:40:52.692Z,0
2019-02-08T04:42:02.618Z,0
2019-02-08T04:43:12.576Z,0
2019-02-08T04:44:22.283Z,0
2019-02-08T04:45:31.961Z,0
2019-02-08T04:46:41.678Z,0
2019-02-08T04:47:51.363Z,0
2019-02-08T04:49:01.051Z,0
2019-02-08T04:50:10.727Z,0
2019-02-08T04:51:20.421Z,0
2019-02-08T04:52:29.854Z,0
2019-02-08T04:53:39.544Z,0
2019-02-08T04:54:49.486Z,0
2019-02-08T04:55:59.443Z,0
2019-02-08T04:57:08.878Z,0
2019-02-08T04:58:18.831Z,0
2019-02-08T04:59:28.791Z,0
2019-02-08T05:00:38.723Z,0
2019-02-08T05:01:48.403Z,0
2019-02-08T05:02:58.333Z,0
2019-02-08T05:04:07.781Z,0
2019-02-08T05:05:17.457Z,0
2019-02-08T05:06:27.176Z,0
2019-02-08T05:07:36.123Z,0
2019-02-08T05:08:46.065Z,0
2019-02-08T05:09:55.999Z,0
2019-02-08T05:11:05.684Z,0
2019-02-08T05:12:15.157Z,0
2019-02-08T05:13:24.838Z,0
2019-02-08T05:14:34.517Z,0
2019-02-08T05:15:44.462Z,0
2019-02-08T05:16:54.400Z,0
2019-02-08T05:18:04.082Z,0
2019-02-08T05:19:14.016Z,0
2019-02-08T05:20:23.705Z,0
2019-02-08T05:21:33.146Z,0
2019-02-08T05:22:42.828Z,0
2019-02-08T05:23:52.523Z,0
2019-02-08T05:25:02.772Z,0
2019-02-08T05:26:12.454Z,0
2019-02-08T05:27:22.379Z,0
2019-02-08T05:28:32.315Z,0
2019-02-08T05:29:42.247Z,0
2019-02-08T05:30:52.182Z,0
2019-02-08T05:32:01.856Z,0
2019-02-08T05:33:11.565Z,0
2019-02-08T05:34:21.502Z,0
2019-02-08T05:35:31.442Z,0
2019-02-08T05:36:41.404Z,0
2019-02-08T05:37:51.344Z,0
2019-02-08T05:39:00.765Z,0
2019-02-08T05:40:10.691Z,0
2019-02-08T05:41:20.632Z,0
2019-02-08T05:42:30.340Z,0
2019-02-08T05:43:40.269Z,0
2019-02-08T05:44:49.690Z,0
2019-02-08T05:45:59.375Z,0
2019-02-08T05:47:09.087Z,0
2019-02-08T05:48:18.262Z,0
2019-02-08T05:49:28.183Z,0
2019-02-08T05:50:37.352Z,0
2019-02-08T05:51:47.052Z,0
2019-02-08T05:52:56.526Z,0
2019-02-08T05:54:06.238Z,0
2019-02-08T05:55:15.925Z,0
2019-02-08T05:56:25.610Z,0
2019-02-08T05:57:36.016Z,0
2019-02-08T05:58:45.953Z,0
2019-02-08T05:59:55.378Z,0
2019-02-08T06:01:04.313Z,0
2019-02-08T06:02:13.746Z,0
2019-02-08T06:03:23.675Z,0
2019-02-08T06:04:33.621Z,0
2019-02-08T06:05:43.576Z,0
2019-02-08T06:06:53.513Z,0
2019-02-08T06:08:03.195Z,0
2019-02-08T06:09:12.883Z,0
2019-02-08T06:10:22.338Z,0
2019-02-08T06:11:32.950Z,0
2019-02-08T06:12:42.850Z,0
2019-02-08T06:13:52.812Z,0
2019-02-08T06:15:02.801Z,0
2019-02-08T06:16:12.493Z,0
2019-02-08T06:17:22.442Z,0
2019-02-08T06:18:32.139Z,0
2019-02-08T06:19:41.569Z,0
2019-02-08T06:20:51.517Z,0
2019-02-08T06:22:01.206Z,0
2019-02-08T06:23:10.880Z,0
2019-02-08T06:24:20.562Z,0
2019-02-08T06:25:30.334Z,0
2019-02-08T06:26:40.015Z,0
2019-02-08T06:27:49.445Z,0
2019-02-08T06:28:59.144Z,4
2019-02-08T06:30:09.096Z,4
2019-02-08T06:31:18.803Z,4
2019-02-08T06:32:28.737Z,4
2019-02-08T06:33:38.431Z,0
2019-02-08T06:34:48.364Z,4
2019-02-08T06:35:58.310Z,4
2019-02-08T06:37:07.743Z,4
2019-02-08T06:38:17.179Z,8
2019-02-08T06:39:26.606Z,8
2019-02-08T06:40:36.296Z,12
2019-02-08T06:41:46.245Z,8
2019-02-08T06:42:55.936Z,12
2019-02-08T06:44:05.917Z,16
2019-02-08T06:45:15.593Z,20
2019-02-08T06:46:25.062Z,24
2019-02-08T06:47:35.003Z,32
2019-02-08T06:48:44.681Z,32
2019-02-08T06:49:54.599Z,40
2019-02-08T06:51:04.203Z,48
2019-02-08T06:52:14.207Z,48
2019-02-08T06:53:23.873Z,52
2019-02-08T06:54:33.298Z,64
2019-02-08T06:55:42.231Z,60
2019-02-08T06:56:51.909Z,72
2019-02-08T06:58:01.666Z,68
2019-02-08T06:59:11.340Z,72
2019-02-08T07:00:20.771Z,72
2019-02-08T07:01:30.450Z,80
2019-02-08T07:02:40.149Z,84
2019-02-08T07:03:49.829Z,80
2019-02-08T07:04:59.513Z,80
2019-02-08T07:06:09.200Z,84
2019-02-08T07:07:18.882Z,96
2019-02-08T07:08:28.309Z,112
2019-02-08T07:09:38.291Z,124
2019-02-08T07:10:48.678Z,128
2019-02-08T07:11:58.107Z,132
2019-02-08T07:13:07.783Z,160
2019-02-08T07:14:17.706Z,200
2019-02-08T07:15:27.135Z,204
2019-02-08T07:16:37.533Z,228
2019-02-08T07:17:47.051Z,236
2019-02-08T07:18:56.990Z,272
2019-02-08T07:20:06.924Z,252
2019-02-08T07:21:16.093Z,272
2019-02-08T07:22:25.760Z,340
2019-02-08T07:23:35.189Z,348
2019-02-08T07:24:44.887Z,320
2019-02-08T07:25:54.580Z,424
2019-02-08T07:27:04.263Z,468
2019-02-08T07:28:13.934Z,508
2019-02-08T07:29:23.608Z,516
2019-02-08T07:30:33.277Z,520
2019-02-08T07:31:42.964Z,524
2019-02-08T07:32:53.979Z,528
2019-02-08T07:34:03.663Z,536
2019-02-08T07:35:13.597Z,536
2019-02-08T07:36:23.275Z,516
2019-02-08T07:37:32.962Z,492
2019-02-08T07:38:42.445Z,472
2019-02-08T07:39:52.114Z,480
2019-02-08T07:41:01.536Z,464
2019-02-08T07:42:11.211Z,452
2019-02-08T07:43:20.901Z,472
2019-02-08T07:44:30.601Z,460
2019-02-08T07:45:39.779Z,456
2019-02-08T07:46:49.706Z,472
2019-02-08T07:47:59.638Z,492
2019-02-08T07:49:09.080Z,528
2019-02-08T07:50:19.003Z,556
2019-02-08T07:51:28.934Z,632
2019-02-08T07:52:38.610Z,680
2019-02-08T07:53:48.290Z,684
2019-02-08T07:54:57.715Z,640
2019-02-08T07:56:07.807Z,656
2019-02-08T07:57:17.497Z,636
2019-02-08T07:58:26.678Z,712
2019-02-08T07:59:36.598Z,624
2019-02-08T08:00:45.780Z,652
2019-02-08T08:01:55.231Z,784
2019-02-08T08:03:04.666Z,816
2019-02-08T08:04:13.845Z,900
2019-02-08T08:05:23.763Z,828
2019-02-08T08:06:33.201Z,764
2019-02-08T08:07:43.158Z,736
2019-02-08T08:08:52.864Z,724
2019-02-08T08:10:02.294Z,716
2019-02-08T08:11:12.228Z,740
2019-02-08T08:12:21.922Z,720
2019-02-08T08:13:31.774Z,780
2019-02-08T08:14:41.456Z,820
2019-02-08T08:15:51.140Z,872
2019-02-08T08:17:00.571Z,860
2019-02-08T08:18:10.552Z,844
2019-02-08T08:19:20.834Z,900
2019-02-08T08:20:30.769Z,832
2019-02-08T08:21:40.442Z,944
2019-02-08T08:22:50.122Z,864
2019-02-08T08:24:00.060Z,792
2019-02-08T08:25:09.748Z,788
2019-02-08T08:26:19.446Z,784
2019-02-08T08:27:28.888Z,740
2019-02-08T08:28:38.816Z,752
2019-02-08T08:29:48.496Z,804
2019-02-08T08:30:58.466Z,920
2019-02-08T08:32:08.413Z,864
2019-02-08T08:33:18.355Z,832
2019-02-08T08:34:28.038Z,852
2019-02-08T08:35:37.980Z,900
2019-02-08T08:36:47.407Z,924
2019-02-08T08:37:57.085Z,928
2019-02-08T08:39:06.773Z,920
2019-02-08T08:40:16.725Z,1016
2019-02-08T08:41:26.407Z,1132
2019-02-08T08:42:36.333Z,960
2019-02-08T08:43:46.018Z,1092
2019-02-08T08:44:55.696Z,1096
2019-02-08T08:46:05.133Z,1036
2019-02-08T08:47:15.062Z,1200
2019-02-08T08:48:24.497Z,1508
2019-02-08T08:49:34.416Z,1292
2019-02-08T08:50:44.087Z,1540
2019-02-08T08:51:54.026Z,1396
2019-02-08T08:53:03.714Z,1712
2019-02-08T08:54:13.135Z,1532
2019-02-08T08:55:23.064Z,1364
2019-02-08T08:56:32.738Z,1192
2019-02-08T08:57:42.675Z,1188
2019-02-08T08:58:52.349Z,1264
2019-02-08T09:00:01.772Z,1212
2019-02-08T09:01:11.453Z,1228
2019-02-08T09:02:21.393Z,1384
2019-02-08T09:03:31.322Z,1292
2019-02-08T09:04:41.847Z,1444
2019-02-08T09:05:51.702Z,1308
2019-02-08T09:07:01.627Z,1504
2019-02-08T09:08:10.810Z,1524
2019-02-08T09:09:20.492Z,1484
2019-02-08T09:10:29.680Z,1524
2019-02-08T09:11:39.629Z,1784
2019-02-08T09:12:49.314Z,1992
2019-02-08T09:13:58.741Z,2052
2019-02-08T09:15:08.703Z,2332
2019-02-08T09:16:18.141Z,2524
2019-02-08T09:17:28.077Z,2372
2019-02-08T09:18:38.010Z,2380
2019-02-08T09:19:47.944Z,2328
2019-02-08T09:20:57.882Z,2728
2019-02-08T09:22:07.806Z,2444
2019-02-08T09:23:17.243Z,3076
2019-02-08T09:24:26.684Z,3128
2019-02-08T09:25:36.359Z,3112
2019-02-08T09:26:45.783Z,2952
2019-02-08T09:27:55.504Z,3024
2019-02-08T09:29:05.300Z,3004
2019-02-08T09:30:14.480Z,3072
2019-02-08T09:31:24.402Z,3024
2019-02-08T09:32:33.580Z,2932
2019-02-08T09:33:43.512Z,2520
2019-02-08T09:34:53.221Z,2836
2019-02-08T09:36:03.151Z,2940
2019-02-08T09:37:12.841Z,2580
2019-02-08T09:38:22.517Z,2716
2019-02-08T09:39:31.445Z,2584
2019-02-08T09:40:40.883Z,2576
2019-02-08T09:41:50.571Z,2800
2019-02-08T09:43:00.504Z,2744
2019-02-08T09:44:09.962Z,2288
2019-02-08T09:45:19.375Z,2468
2019-02-08T09:46:29.299Z,2708
2019-02-08T09:47:38.988Z,3236
2019-02-08T09:48:48.437Z,2760
2019-02-08T09:49:58.370Z,2996
2019-02-08T09:51:08.043Z,2916
2019-02-08T09:52:17.472Z,2560
2019-02-08T09:53:26.904Z,2344
2019-02-08T09:54:36.842Z,2508
2019-02-08T09:55:46.545Z,2524
2019-02-08T09:56:56.487Z,2784
2019-02-08T09:58:06.177Z,2928
2019-02-08T09:59:16.103Z,2972
2019-02-08T10:00:25.029Z,2968
2019-02-08T10:01:34.948Z,3312
2019-02-08T10:02:44.625Z,3820
2019-02-08T10:03:54.552Z,3704
2019-02-08T10:05:04.243Z,3000
2019-02-08T10:06:14.195Z,2260
2019-02-08T10:07:23.631Z,2628
2019-02-08T10:08:33.580Z,2644
2019-02-08T10:09:43.006Z,2692
2019-02-08T10:10:52.701Z,3124
2019-02-08T10:12:02.379Z,3212
2019-02-08T10:13:12.057Z,4236
2019-02-08T10:14:21.983Z,4668
2019-02-08T10:15:31.665Z,5272
2019-02-08T10:16:41.344Z,4676
2019-02-08T10:17:51.287Z,4132
2019-02-08T10:19:00.962Z,3516
2019-02-08T10:20:10.697Z,3712
2019-02-08T10:21:20.620Z,3116
2019-02-08T10:22:30.306Z,2676
2019-02-08T10:23:39.731Z,3408
2019-02-08T10:24:49.463Z,3012
2019-02-08T10:26:05.142Z,2972
2019-02-08T10:27:15.109Z,2972
2019-02-08T10:28:25.061Z,3428
2019-02-08T10:29:35.191Z,3900
2019-02-08T10:30:44.859Z,4496
2019-02-08T10:31:54.296Z,4020
2019-02-08T10:33:04.236Z,4104
2019-02-08T10:34:13.414Z,3956
2019-02-08T10:35:22.839Z,3328
2019-02-08T10:36:32.767Z,2948
2019-02-08T10:37:42.700Z,3084
2019-02-08T10:38:52.443Z,2376
2019-02-08T10:40:02.648Z,1780
2019-02-08T10:41:12.583Z,1988
2019-02-08T10:42:22.509Z,2624
2019-02-08T10:43:32.445Z,3316
2019-02-08T10:44:42.129Z,4592
2019-02-08T10:45:51.325Z,3924
2019-02-08T10:47:01.254Z,3340
2019-02-08T10:48:10.938Z,2972
2019-02-08T10:49:20.413Z,2740
2019-02-08T10:50:29.852Z,2664
2019-02-08T10:51:39.286Z,2984
2019-02-08T10:52:48.979Z,3688
2019-02-08T10:54:00.254Z,4076
2019-02-08T10:55:09.996Z,4116
2019-02-08T10:56:22.427Z,3436
2019-02-08T10:57:32.115Z,3180
2019-02-08T10:58:41.799Z,3444
2019-02-08T10:59:51.741Z,2916
2019-02-08T11:01:01.677Z,3888
2019-02-08T11:02:11.111Z,4612
2019-02-08T11:03:20.533Z,4364
2019-02-08T11:04:30.459Z,4240
2019-02-08T11:05:39.903Z,3624
2019-02-08T11:06:49.584Z,4484
2019-02-08T11:07:59.517Z,2880
2019-02-08T11:09:09.211Z,3276
2019-02-08T11:10:19.133Z,3268
2019-02-08T11:11:30.211Z,2928
2019-02-08T11:12:40.147Z,2876
2019-02-08T11:13:49.588Z,3316
2019-02-08T11:14:59.027Z,3644
2019-02-08T11:16:08.963Z,3072
2019-02-08T11:17:18.895Z,3000
2019-02-08T11:18:28.337Z,3068
2019-02-08T11:19:38.308Z,3052
2019-02-08T11:20:47.496Z,3360
2019-02-08T11:21:56.955Z,3472
2019-02-08T11:23:06.403Z,3020
2019-02-08T11:24:16.094Z,3252
2019-02-08T11:25:25.536Z,3628
2019-02-08T11:26:34.973Z,3824
2019-02-08T11:27:44.903Z,4140
2019-02-08T11:28:54.601Z,4080
2019-02-08T11:30:04.534Z,4136
2019-02-08T11:31:14.207Z,4420
2019-02-08T11:32:23.873Z,4704
2019-02-08T11:33:49.852Z,4532
2019-02-08T11:34:59.545Z,4020
2019-02-08T11:36:09.479Z,4036
2019-02-08T11:37:19.158Z,3716
2019-02-08T11:38:28.581Z,3876
2019-02-08T11:39:38.267Z,3500
2019-02-08T11:40:47.941Z,3232
2019-02-08T11:41:57.618Z,3632
2019-02-08T11:43:07.048Z,3632
2019-02-08T11:44:16.482Z,3900
2019-02-08T11:45:25.905Z,3272
2019-02-08T11:46:35.593Z,3436
2019-02-08T11:47:45.032Z,3988
2019-02-08T11:48:54.726Z,3700
2019-02-08T11:50:04.164Z,3752
2019-02-08T11:51:14.794Z,3324
2019-02-08T11:52:24.553Z,2968
2019-02-08T11:53:34.002Z,2968
2019-02-08T11:54:43.433Z,2912
2019-02-08T11:55:52.896Z,3740
2019-02-08T11:57:02.351Z,3992
2019-02-08T11:58:11.546Z,3308
2019-02-08T11:59:21.244Z,3000
2019-02-08T12:00:31.187Z,3284
2019-02-08T12:01:40.870Z,3504
2019-02-08T12:02:49.804Z,3544
2019-02-08T12:03:59.231Z,3760
2019-02-08T12:05:08.656Z,4076
2019-02-08T12:06:18.585Z,3888
2019-02-08T12:07:28.268Z,4072
2019-02-08T12:08:37.960Z,4164
2019-02-08T12:09:47.918Z,4344
2019-02-08T12:10:57.611Z,4612
2019-02-08T12:12:07.299Z,4344
2019-02-08T12:13:16.729Z,4532
2019-02-08T12:14:26.459Z,4280
2019-02-08T12:15:36.867Z,4608
2019-02-08T12:16:46.295Z,4452
2019-02-08T12:17:56.221Z,4136
2019-02-08T12:19:05.663Z,4516
2019-02-08T12:20:14.854Z,4512
2019-02-08T12:21:24.781Z,4304
2019-02-08T12:22:34.455Z,5344
2019-02-08T12:23:44.197Z,5468
2019-02-08T12:24:55.029Z,5920
2019-02-08T12:26:04.954Z,6012
2019-02-08T12:27:14.648Z,4788
2019-02-08T12:28:23.836Z,5056
2019-02-08T12:31:09.280Z,5444
2019-02-08T12:32:18.964Z,4960
2019-02-08T12:33:28.640Z,5260
2019-02-08T12:34:38.641Z,5892
2019-02-08T12:35:48.077Z,5928
2019-02-08T12:36:58.011Z,8264
2019-02-08T12:38:07.688Z,9180
2019-02-08T12:39:17.620Z,9124
2019-02-08T12:40:27.557Z,8224
2019-02-08T12:41:37.247Z,9344
2019-02-08T12:42:47.202Z,9076
2019-02-08T12:43:56.629Z,9120
2019-02-08T12:45:06.578Z,9812
2019-02-08T12:46:16.009Z,9932
2019-02-08T12:47:25.705Z,9512
2019-02-08T12:48:36.473Z,10680
2019-02-08T12:49:46.260Z,10876
2019-02-08T12:50:55.440Z,11060
2019-02-08T12:52:05.370Z,10888
2019-02-08T12:53:15.309Z,10776
2019-02-08T12:54:26.043Z,10200
2019-02-08T12:55:36.000Z,8488
2019-02-08T12:56:52.509Z,7080
2019-02-08T12:58:01.954Z,6092
2019-02-08T12:59:11.190Z,6036
2019-02-08T13:00:21.577Z,6108
2019-02-08T13:01:37.531Z,6808
2019-02-08T13:02:47.648Z,7108
2019-02-08T13:03:57.588Z,7868
2019-02-08T13:05:07.269Z,7640
2019-02-08T13:06:16.698Z,7508
2019-02-08T13:07:26.635Z,6776
2019-02-08T13:08:36.076Z,5896
2019-02-08T13:09:45.784Z,6992
2019-02-08T13:10:55.477Z,6504
2019-02-08T13:12:04.898Z,6536
2019-02-08T13:13:14.324Z,7428
2019-02-08T13:14:24.008Z,7484
2019-02-08T13:15:33.695Z,5960
2019-02-08T13:16:43.624Z,5592
2019-02-08T13:17:53.302Z,5548
2019-02-08T13:19:02.750Z,5384
2019-02-08T13:20:11.685Z,4652
2019-02-08T13:21:21.123Z,4648
2019-02-08T13:22:30.552Z,5272
2019-02-08T13:23:40.225Z,5544
2019-02-08T13:24:50.173Z,5984
2019-02-08T13:26:00.118Z,6388
2019-02-08T13:27:10.059Z,5164
2019-02-08T13:28:19.776Z,4524
2019-02-08T13:29:29.538Z,4128
2019-02-08T13:30:39.480Z,4520
2019-02-08T13:31:49.161Z,4856
2019-02-08T13:32:58.896Z,4860
2019-02-08T13:34:08.577Z,4960
2019-02-08T13:35:18.007Z,4980
2019-02-08T13:36:27.940Z,5560
2019-02-08T13:37:37.876Z,5080
2019-02-08T13:38:47.328Z,4524
2019-02-08T13:39:56.762Z,4048
2019-02-08T13:41:06.452Z,3568
2019-02-08T13:42:16.394Z,3796
2019-02-08T13:43:25.586Z,3636
2019-02-08T13:44:35.013Z,3656
2019-02-08T13:45:44.437Z,3536
2019-02-08T13:46:54.123Z,2980
2019-02-08T13:48:03.805Z,2872
2019-02-08T13:49:13.748Z,2696
2019-02-08T13:50:22.936Z,2692
2019-02-08T13:51:32.384Z,2768
2019-02-08T13:52:42.314Z,2768
2019-02-08T13:53:52.240Z,2540
2019-02-08T13:55:01.696Z,2080
2019-02-08T13:56:11.385Z,1868
2019-02-08T13:57:21.064Z,1928
2019-02-08T13:58:31.010Z,2144
2019-02-08T13:59:40.451Z,1940
2019-02-08T14:00:50.138Z,1744
2019-02-08T14:02:00.069Z,1576
2019-02-08T14:03:09.509Z,1604
2019-02-08T14:04:18.740Z,1668
2019-02-08T14:05:28.193Z,1300
2019-02-08T14:06:38.142Z,1180
2019-02-08T14:07:48.118Z,1284
2019-02-08T14:08:57.801Z,1348
2019-02-08T14:10:07.237Z,1244
2019-02-08T14:11:16.955Z,1176
2019-02-08T14:12:26.646Z,1068
2019-02-08T14:13:42.758Z,1156
2019-02-08T14:14:52.203Z,1496
2019-02-08T14:16:02.133Z,1404
2019-02-08T14:17:12.111Z,1424
2019-02-08T14:18:21.820Z,1476
2019-02-08T14:19:31.764Z,1696
2019-02-08T14:20:41.195Z,1816
2019-02-08T14:21:50.628Z,1720
2019-02-08T14:23:00.548Z,1640
2019-02-08T14:24:10.238Z,1796
2019-02-08T14:25:19.951Z,1956
2019-02-08T14:26:29.648Z,2132
2019-02-08T14:27:39.089Z,2264
2019-02-08T14:28:48.527Z,2400
2019-02-08T14:29:58.201Z,2348
2019-02-08T14:31:07.903Z,2252
2019-02-08T14:32:17.808Z,2124
2019-02-08T14:33:27.266Z,2120
2019-02-08T14:34:43.369Z,2064
2019-02-08T14:35:53.368Z,1804
2019-02-08T14:37:03.404Z,1764
2019-02-08T14:38:12.841Z,1812
2019-02-08T14:39:22.272Z,1728
2019-02-08T14:40:31.698Z,1844
2019-02-08T14:41:41.377Z,2068
2019-02-08T14:42:50.562Z,2116
2019-02-08T14:43:59.993Z,2060
2019-02-08T14:45:09.450Z,2160
2019-02-08T14:46:19.014Z,1776
2019-02-08T14:47:28.694Z,1440
2019-02-08T14:48:38.629Z,1308
2019-02-08T14:49:48.565Z,1276
2019-02-08T14:50:58.501Z,1340
2019-02-08T14:52:08.439Z,1268
2019-02-08T14:53:18.379Z,1260
2019-02-08T14:54:27.828Z,1264
2019-02-08T14:55:37.763Z,1252
2019-02-08T14:56:47.699Z,1148
2019-02-08T14:57:57.630Z,904
2019-02-08T14:59:07.242Z,820
2019-02-08T15:00:16.933Z,840
2019-02-08T15:01:26.616Z,840
2019-02-08T15:02:36.325Z,788
2019-02-08T15:03:47.464Z,812
2019-02-08T15:04:56.398Z,740
2019-02-08T15:06:05.622Z,720
2019-02-08T15:07:16.417Z,720
2019-02-08T15:08:26.121Z,708
2019-02-08T15:09:35.576Z,660
2019-02-08T15:10:45.512Z,600
2019-02-08T15:11:54.957Z,580
2019-02-08T15:13:05.280Z,604
2019-02-08T15:14:14.960Z,580
2019-02-08T15:15:24.631Z,600
2019-02-08T15:16:34.315Z,584
2019-02-08T15:17:43.988Z,524
2019-02-08T15:18:53.824Z,504
2019-02-08T15:20:05.343Z,520
2019-02-08T15:21:15.387Z,480
2019-02-08T15:22:24.834Z,436
2019-02-08T15:23:34.529Z,428
2019-02-08T15:24:44.205Z,468
2019-02-08T15:25:53.883Z,460
2019-02-08T15:27:03.577Z,444
2019-02-08T15:28:13.387Z,428
2019-02-08T15:29:23.150Z,376
2019-02-08T15:30:32.937Z,352
2019-02-08T15:31:42.906Z,348
2019-02-08T15:32:52.849Z,332
2019-02-08T15:34:02.840Z,376
2019-02-08T15:35:12.584Z,448
2019-02-08T15:36:22.506Z,416
2019-02-08T15:37:31.691Z,408
2019-02-08T15:38:41.372Z,420
2019-02-08T15:39:51.098Z,404
2019-02-08T15:41:00.610Z,332
2019-02-08T15:42:10.072Z,328
2019-02-08T15:43:19.791Z,356
2019-02-08T15:44:29.556Z,320
2019-02-08T15:45:39.866Z,352
2019-02-08T15:46:49.342Z,332
2019-02-08T15:47:59.352Z,280
2019-02-08T15:49:09.237Z,236
2019-02-08T15:50:18.964Z,220
2019-02-08T15:51:28.643Z,200
2019-02-08T15:52:38.568Z,188
2019-02-08T15:53:48.249Z,172
2019-02-08T15:54:57.426Z,180
2019-02-08T15:56:06.877Z,180
2019-02-08T15:57:16.574Z,156
2019-02-08T15:58:26.266Z,144
2019-02-08T15:59:35.442Z,128
2019-02-08T16:03:08.340Z,108
2019-02-08T16:04:18.293Z,112
2019-02-08T16:05:27.970Z,108
2019-02-08T16:06:37.651Z,92
2019-02-08T16:07:47.346Z,84
2019-02-08T16:08:57.019Z,80
2019-02-08T16:10:06.457Z,72
2019-02-08T16:11:16.170Z,60
2019-02-08T16:12:25.867Z,56
2019-02-08T16:13:35.554Z,56
2019-02-08T16:14:45.245Z,48
2019-02-08T16:15:54.673Z,56
2019-02-08T16:17:03.864Z,44
2019-02-08T16:18:13.792Z,36
2019-02-08T16:19:23.472Z,36
2019-02-08T16:20:33.156Z,28
2019-02-08T16:21:42.348Z,24